createdAt,value
2023-05-15T00:00:52.221Z,5.53
2023-05-15T00:03:18.895Z,5.47
2023-05-15T00:05:45.710Z,5.87
2023-05-15T00:08:12.367Z,5.40
2023-05-15T00:10:40.941Z,5.80
2023-05-15T00:13:09.523Z,6.23
2023-05-15T00:15:36.145Z,5.70
2023-05-15T00:18:02.735Z,5.03
2023-05-15T00:20:29.575Z,5.80
2023-05-15T00:22:56.863Z,5.27
2023-05-15T00:25:23.640Z,5.70
2023-05-15T00:27:50.433Z,5.47
2023-05-15T00:30:17.135Z,5.50
2023-05-15T00:32:44.063Z,5.27
2023-05-15T00:35:10.783Z,5.43
2023-05-15T00:37:37.419Z,6.43
2023-05-15T00:40:04.760Z,5.33
2023-05-15T00:42:32.300Z,5.30
2023-05-15T00:45:01.120Z,5.40
2023-05-15T00:47:28.749Z,5.73
2023-05-15T00:49:57.031Z,5.80
2023-05-15T00:52:24.344Z,5.60
2023-05-15T00:54:51.145Z,5.87
2023-05-15T00:57:18.801Z,5.77
2023-05-15T00:59:46.599Z,5.27
2023-05-15T01:02:15.806Z,4.90
2023-05-15T01:04:42.528Z,5.07
2023-05-15T01:07:09.194Z,5.20
2023-05-15T01:09:38.366Z,5.03
2023-05-15T01:12:06.849Z,5.83
2023-05-15T01:14:33.441Z,5.37
2023-05-15T01:17:00.097Z,6.87
2023-05-15T01:19:27.179Z,5.80
2023-05-15T01:22:02.996Z,6.20
2023-05-15T01:25:04.447Z,5.87
2023-05-15T01:27:41.363Z,5.83
2023-05-15T01:30:28.981Z,6.13
2023-05-15T01:33:34.119Z,6.00
2023-05-15T01:36:19.993Z,7.27
2023-05-15T01:38:52.684Z,9.20
2023-05-15T01:41:56.823Z,6.37
2023-05-15T01:44:29.426Z,6.60
2023-05-15T01:46:59.962Z,6.70
2023-05-15T01:49:28.124Z,5.73
2023-05-15T01:52:05.193Z,5.27
2023-05-15T01:54:33.371Z,5.80
2023-05-15T01:57:00.474Z,6.13
2023-05-15T01:59:28.810Z,5.60
2023-05-15T02:01:57.445Z,6.60
2023-05-15T02:04:24.831Z,6.37
2023-05-15T02:06:53.146Z,6.03
2023-05-15T02:09:21.049Z,5.90
2023-05-15T02:11:48.410Z,5.37
2023-05-15T02:14:17.062Z,5.23
2023-05-15T02:16:43.932Z,7.97
2023-05-15T02:19:10.680Z,5.60
2023-05-15T02:21:37.352Z,6.07
2023-05-15T02:24:04.231Z,6.07
2023-05-15T02:26:33.589Z,5.77
2023-05-15T02:29:21.160Z,6.87
2023-05-15T02:32:04.902Z,5.20
2023-05-15T02:35:09.056Z,5.47
2023-05-15T02:37:38.467Z,5.23
2023-05-15T02:40:09.918Z,5.27
2023-05-15T02:42:37.671Z,5.10
2023-05-15T02:45:05.981Z,5.50
2023-05-15T02:47:33.392Z,5.20
2023-05-15T02:50:00.339Z,5.23
2023-05-15T02:52:26.990Z,7.83
2023-05-15T02:54:53.766Z,6.13
2023-05-15T02:57:20.451Z,5.70
2023-05-15T02:59:47.068Z,5.30
2023-05-15T03:02:13.704Z,5.13
2023-05-15T03:04:40.359Z,4.70
2023-05-15T03:07:06.990Z,5.23
2023-05-15T03:09:33.575Z,5.00
2023-05-15T03:12:00.402Z,5.03
2023-05-15T03:14:27.055Z,5.20
2023-05-15T03:16:53.796Z,5.53
2023-05-15T03:19:20.536Z,5.20
2023-05-15T03:21:47.138Z,5.40
2023-05-15T03:24:13.714Z,4.97
2023-05-15T03:26:40.670Z,5.50
2023-05-15T03:29:07.266Z,5.50
2023-05-15T03:31:34.137Z,5.07
2023-05-15T03:34:00.772Z,5.33
2023-05-15T03:36:27.369Z,5.00
2023-05-15T03:38:53.976Z,5.10
2023-05-15T03:41:21.354Z,5.10
2023-05-15T03:43:48.033Z,5.33
2023-05-15T03:46:15.700Z,5.13
2023-05-15T03:48:42.441Z,4.60
2023-05-15T03:51:09.092Z,5.50
2023-05-15T03:53:35.749Z,5.60
2023-05-15T03:56:03.386Z,5.10
2023-05-15T03:58:31.965Z,5.07
2023-05-15T04:00:58.775Z,7.73
2023-05-15T04:03:25.467Z,4.87
2023-05-15T04:05:52.381Z,5.00
2023-05-15T04:08:19.037Z,5.50
2023-05-15T04:10:45.688Z,4.60
2023-05-15T04:13:12.335Z,5.20
2023-05-15T04:15:40.440Z,5.13
2023-05-15T04:18:07.075Z,4.93
2023-05-15T04:20:34.047Z,4.47
2023-05-15T04:23:00.925Z,4.90
2023-05-15T04:25:27.961Z,4.40
2023-05-15T04:27:54.620Z,5.10
2023-05-15T04:30:21.417Z,5.00
2023-05-15T04:32:48.754Z,5.17
2023-05-15T04:35:15.628Z,5.03
2023-05-15T04:37:43.603Z,5.10
2023-05-15T04:40:10.531Z,4.87
2023-05-15T04:42:39.070Z,4.70
2023-05-15T04:45:07.355Z,5.17
2023-05-15T04:47:34.296Z,5.80
2023-05-15T04:50:00.998Z,4.83
2023-05-15T04:52:27.659Z,4.90
2023-05-15T04:54:55.679Z,4.43
2023-05-15T04:57:22.488Z,5.00
2023-05-15T04:59:49.208Z,4.63
2023-05-15T05:02:15.841Z,4.60
2023-05-15T05:04:44.055Z,4.53
2023-05-15T05:07:10.656Z,4.70
2023-05-15T05:09:39.895Z,5.00
2023-05-15T05:12:09.532Z,4.60
2023-05-15T05:14:36.717Z,4.90
2023-05-15T05:17:03.791Z,4.60
2023-05-15T05:19:30.755Z,6.63
2023-05-15T05:22:04.514Z,4.50
2023-05-15T05:24:38.038Z,5.60
2023-05-15T05:27:05.431Z,5.70
2023-05-15T05:29:32.426Z,5.87
2023-05-15T05:31:59.347Z,5.63
2023-05-15T05:34:25.977Z,5.67
2023-05-15T05:36:52.662Z,5.97
2023-05-15T05:39:19.276Z,5.90
2023-05-15T05:41:45.872Z,6.00
2023-05-15T05:44:12.510Z,6.57
2023-05-15T05:46:39.179Z,7.70
2023-05-15T05:49:05.997Z,7.97
2023-05-15T05:51:32.720Z,9.23
2023-05-15T05:53:59.357Z,7.50
2023-05-15T05:56:26.482Z,8.77
2023-05-15T05:58:53.369Z,7.37
2023-05-15T06:01:20.660Z,6.50
2023-05-15T06:03:47.367Z,7.40
2023-05-15T06:06:14.190Z,10.50
2023-05-15T06:08:41.088Z,7.70
2023-05-15T06:11:07.706Z,7.40
2023-05-15T06:13:34.461Z,6.90
2023-05-15T06:16:01.403Z,6.33
2023-05-15T06:18:28.054Z,7.53
2023-05-15T06:20:54.692Z,8.17
2023-05-15T06:23:23.689Z,7.70
2023-05-15T06:25:50.908Z,7.77
2023-05-15T06:28:17.484Z,7.83
2023-05-15T06:30:44.168Z,7.03
2023-05-15T06:33:10.962Z,7.67
2023-05-15T06:35:37.673Z,7.43
2023-05-15T06:38:04.488Z,6.57
2023-05-15T06:40:31.202Z,7.37
2023-05-15T06:42:58.635Z,8.20
2023-05-15T06:45:25.700Z,7.60
2023-05-15T06:47:52.667Z,14.17
2023-05-15T06:50:19.527Z,10.30
2023-05-15T06:52:46.340Z,9.13
2023-05-15T06:55:12.999Z,9.50
2023-05-15T06:57:39.620Z,10.87
2023-05-15T07:00:06.826Z,8.90
2023-05-15T07:02:33.875Z,9.37
2023-05-15T07:05:00.605Z,10.47
2023-05-15T07:07:27.271Z,8.33
2023-05-15T07:09:53.880Z,8.47
2023-05-15T07:12:20.506Z,11.57
2023-05-15T07:14:47.212Z,8.00
2023-05-15T07:17:13.967Z,9.20
2023-05-15T07:19:40.670Z,7.10
2023-05-15T07:22:07.824Z,7.30
2023-05-15T07:24:34.638Z,7.53
2023-05-15T07:27:01.320Z,8.27
2023-05-15T07:29:27.957Z,10.10
2023-05-15T07:31:54.748Z,9.13
2023-05-15T07:34:21.474Z,7.93
2023-05-15T07:36:48.065Z,7.23
2023-05-15T07:39:14.782Z,7.60
2023-05-15T07:41:41.412Z,9.73
2023-05-15T07:44:08.260Z,6.90
2023-05-15T07:46:35.505Z,8.30
2023-05-15T07:49:02.402Z,5.27
2023-05-15T07:51:29.302Z,5.10
2023-05-15T07:53:56.004Z,5.10
2023-05-15T07:56:23.231Z,4.77
2023-05-15T07:58:49.896Z,4.50
2023-05-15T08:01:16.560Z,4.80
2023-05-15T08:03:43.904Z,4.27
2023-05-15T08:06:10.747Z,3.97
2023-05-15T08:08:37.397Z,4.00
2023-05-15T08:11:04.225Z,4.27
2023-05-15T08:13:30.845Z,4.20
2023-05-15T08:15:57.549Z,3.90
2023-05-15T08:18:24.217Z,4.33
2023-05-15T08:20:52.252Z,4.73
2023-05-15T08:23:18.998Z,6.07
2023-05-15T08:25:45.670Z,4.47
2023-05-15T08:28:12.302Z,3.77
2023-05-15T08:30:38.949Z,4.17
2023-05-15T08:33:05.642Z,3.70
2023-05-15T08:35:32.382Z,3.87
2023-05-15T08:37:59.582Z,5.67
2023-05-15T08:40:38.384Z,3.90
2023-05-15T08:43:14.943Z,3.77
2023-05-15T08:45:41.857Z,3.73
2023-05-15T08:48:14.925Z,3.63
2023-05-15T08:50:43.421Z,3.30
2023-05-15T08:53:14.565Z,3.20
2023-05-15T08:55:42.250Z,3.77
2023-05-15T08:58:09.501Z,3.67
2023-05-15T09:00:37.375Z,4.13
2023-05-15T09:03:04.179Z,3.80
2023-05-15T09:05:31.660Z,3.63
2023-05-15T09:08:03.765Z,3.90
2023-05-15T09:10:31.617Z,4.03
2023-05-15T09:12:59.149Z,3.70
2023-05-15T09:15:26.459Z,4.33
2023-05-15T09:17:54.253Z,3.53
2023-05-15T09:20:26.939Z,3.90
2023-05-15T09:22:54.365Z,3.13
2023-05-15T09:25:38.107Z,3.20
2023-05-15T09:28:06.515Z,3.50
2023-05-15T09:30:34.575Z,2.90
2023-05-15T09:33:03.630Z,3.30
2023-05-15T09:35:37.509Z,3.20
2023-05-15T09:38:13.234Z,3.60
2023-05-15T09:40:42.871Z,3.23
2023-05-15T09:43:12.826Z,3.07
2023-05-15T09:45:39.616Z,3.10
2023-05-15T09:48:07.542Z,3.10
2023-05-15T09:50:36.604Z,3.27
2023-05-15T09:53:04.244Z,3.10
2023-05-15T09:55:36.777Z,2.97
2023-05-15T09:58:11.182Z,2.80
2023-05-15T10:00:47.895Z,3.10
2023-05-15T10:03:17.213Z,2.80
2023-05-15T10:05:44.318Z,2.60
2023-05-15T10:08:11.763Z,3.13
2023-05-15T10:10:38.730Z,2.93
2023-05-15T10:13:08.183Z,2.67
2023-05-15T10:15:35.773Z,2.90
2023-05-15T10:18:04.550Z,6.93
2023-05-15T10:20:33.149Z,3.37
2023-05-15T10:23:02.597Z,8.27
2023-05-15T10:25:57.664Z,9.83
2023-05-15T10:28:24.921Z,4.30
2023-05-15T10:30:52.992Z,4.33
2023-05-15T10:33:20.477Z,3.90
2023-05-15T10:35:48.291Z,4.00
2023-05-15T10:38:15.728Z,4.07
2023-05-15T10:40:43.047Z,3.90
2023-05-15T10:43:11.974Z,3.50
2023-05-15T10:45:39.610Z,3.60
2023-05-15T10:48:08.585Z,3.63
2023-05-15T10:50:37.503Z,3.23
2023-05-15T10:53:04.339Z,3.40
2023-05-15T10:55:31.179Z,3.57
2023-05-15T10:57:57.842Z,2.67
2023-05-15T11:00:31.055Z,2.73
2023-05-15T11:02:58.767Z,3.90
2023-05-15T11:05:26.281Z,3.00
2023-05-15T11:08:14.980Z,3.03
2023-05-15T11:10:41.707Z,4.80
2023-05-15T11:13:08.348Z,3.63
2023-05-15T11:15:43.027Z,2.97
2023-05-15T11:18:09.812Z,2.97
2023-05-15T11:20:40.630Z,3.53
2023-05-15T11:23:07.864Z,3.23
2023-05-15T11:25:36.147Z,3.00
2023-05-15T11:28:04.536Z,3.23
2023-05-15T11:30:36.738Z,3.30
2023-05-15T11:33:13.426Z,3.13
2023-05-15T11:35:45.745Z,3.20
2023-05-15T11:38:24.433Z,3.03
2023-05-15T11:41:04.044Z,3.00
2023-05-15T11:43:32.676Z,2.60
2023-05-15T11:46:07.533Z,2.43
2023-05-15T11:48:37.204Z,3.08
2023-05-15T11:51:05.525Z,2.70
2023-05-15T11:53:33.267Z,2.70
2023-05-15T11:56:00.059Z,3.20
2023-05-15T11:58:27.372Z,2.60
2023-05-15T12:00:54.317Z,2.80
2023-05-15T12:03:27.137Z,3.08
2023-05-15T12:05:59.786Z,2.77
2023-05-15T12:08:33.966Z,2.30
2023-05-15T12:11:01.810Z,3.13
2023-05-15T12:13:29.441Z,2.80
2023-05-15T12:15:56.768Z,3.07
2023-05-15T12:18:23.923Z,3.20
2023-05-15T12:20:53.007Z,3.27
2023-05-15T12:23:22.900Z,3.17
2023-05-15T12:25:54.823Z,2.80
2023-05-15T12:28:21.954Z,3.00
2023-05-15T12:30:49.448Z,3.17
2023-05-15T12:33:16.653Z,2.70
2023-05-15T12:35:49.419Z,3.10
2023-05-15T12:38:16.617Z,3.40
2023-05-15T12:40:46.470Z,3.57
2023-05-15T12:43:14.392Z,3.00
2023-05-15T12:45:42.055Z,2.77
2023-05-15T12:48:15.049Z,3.13
2023-05-15T12:50:44.618Z,7.13
2023-05-15T12:53:15.076Z,3.33
2023-05-15T12:55:43.916Z,2.90
2023-05-15T12:58:12.520Z,3.13
2023-05-15T13:00:41.856Z,2.87
2023-05-15T13:03:10.819Z,3.17
2023-05-15T13:05:38.517Z,2.80
2023-05-15T13:08:07.433Z,2.73
2023-05-15T13:10:36.306Z,3.87
2023-05-15T13:13:03.023Z,3.10
2023-05-15T13:15:37.829Z,6.33
2023-05-15T13:18:13.156Z,3.03
2023-05-15T13:20:47.877Z,3.33
2023-05-15T13:23:17.438Z,2.80
2023-05-15T13:25:44.628Z,3.40
2023-05-15T13:28:11.931Z,3.27
2023-05-15T13:30:41.367Z,3.57
2023-05-15T13:33:12.461Z,3.20
2023-05-15T13:35:40.202Z,3.40
2023-05-15T13:38:09.466Z,2.97
2023-05-15T13:40:38.485Z,3.20
2023-05-15T13:43:06.571Z,3.07
2023-05-15T13:45:33.538Z,3.23
2023-05-15T13:48:00.305Z,3.40
2023-05-15T13:50:27.294Z,3.47
2023-05-15T13:52:56.884Z,2.97
2023-05-15T13:55:25.536Z,4.53
2023-05-15T13:57:53.019Z,2.87
2023-05-15T14:00:20.149Z,2.57
2023-05-15T14:02:46.819Z,2.77
2023-05-15T14:05:14.636Z,2.80
2023-05-15T14:07:42.091Z,2.60
2023-05-15T14:10:09.563Z,2.60
2023-05-15T14:12:39.560Z,2.57
2023-05-15T14:15:06.816Z,2.53
2023-05-15T14:17:33.449Z,2.80
2023-05-15T14:20:00.174Z,2.87
2023-05-15T14:22:26.880Z,2.87
2023-05-15T14:24:53.588Z,5.83
2023-05-15T14:27:20.355Z,2.40
2023-05-15T14:29:48.979Z,2.43
2023-05-15T14:32:16.391Z,6.87
2023-05-15T14:34:43.330Z,2.00
2023-05-15T14:37:10.238Z,2.07
2023-05-15T14:39:37.027Z,4.10
2023-05-15T14:42:03.893Z,2.20
2023-05-15T14:44:30.531Z,3.50
2023-05-15T14:47:07.555Z,1.70
2023-05-15T14:49:34.868Z,2.30
2023-05-15T14:52:02.098Z,2.63
2023-05-15T14:54:29.028Z,6.87
2023-05-15T14:56:57.441Z,2.10
2023-05-15T14:59:25.494Z,2.57
2023-05-15T15:01:52.214Z,3.00
2023-05-15T15:04:18.962Z,2.00
2023-05-15T15:06:47.443Z,2.10
2023-05-15T15:09:14.082Z,2.10
2023-05-15T15:11:40.725Z,2.28
2023-05-15T15:14:07.324Z,2.40
2023-05-15T15:16:34.303Z,2.20
2023-05-15T15:19:01.026Z,3.07
2023-05-15T15:21:27.831Z,2.30
2023-05-15T15:23:55.091Z,1.93
2023-05-15T15:26:21.815Z,2.73
2023-05-15T15:28:48.524Z,2.40
2023-05-15T15:31:15.704Z,2.20
2023-05-15T15:33:42.476Z,6.67
2023-05-15T15:36:09.143Z,3.97
2023-05-15T15:38:36.007Z,2.67
2023-05-15T15:41:05.430Z,2.30
2023-05-15T15:43:32.073Z,3.20
2023-05-15T15:45:58.749Z,3.33
2023-05-15T15:48:25.602Z,2.90
2023-05-15T15:50:52.269Z,2.77
2023-05-15T15:53:18.856Z,2.53
2023-05-15T15:55:47.089Z,3.00
2023-05-15T15:58:14.605Z,5.00
2023-05-15T16:00:41.345Z,3.00
2023-05-15T16:03:08.243Z,2.93
2023-05-15T16:05:34.964Z,3.20
2023-05-15T16:08:01.555Z,3.80
2023-05-15T16:10:28.438Z,2.83
2023-05-15T16:12:55.334Z,2.40
2023-05-15T16:15:24.086Z,2.73
2023-05-15T16:17:53.557Z,3.03
2023-05-15T16:20:21.174Z,2.73
2023-05-15T16:22:47.996Z,3.13
2023-05-15T16:25:14.654Z,3.40
2023-05-15T16:27:41.264Z,3.10
2023-05-15T16:30:09.239Z,3.00
2023-05-15T16:32:36.199Z,2.63
2023-05-15T16:35:03.304Z,3.20
2023-05-15T16:37:29.916Z,3.23
2023-05-15T16:39:56.794Z,2.87
2023-05-15T16:42:23.480Z,2.60
2023-05-15T16:44:50.142Z,3.10
2023-05-15T16:47:16.762Z,2.60
2023-05-15T16:49:44.903Z,3.03
2023-05-15T16:52:12.431Z,3.37
2023-05-15T16:54:41.629Z,3.17
2023-05-15T16:57:08.226Z,3.23
2023-05-15T16:59:35.064Z,2.87
2023-05-15T17:02:01.946Z,2.70
2023-05-15T17:04:32.881Z,2.90
2023-05-15T17:06:59.822Z,3.10
2023-05-15T17:09:26.455Z,2.97
2023-05-15T17:11:53.066Z,3.57
2023-05-15T17:14:19.693Z,2.90
2023-05-15T17:16:46.350Z,2.60
2023-05-15T17:19:13.185Z,3.00
2023-05-15T17:21:39.941Z,2.57
2023-05-15T17:24:06.744Z,3.10
2023-05-15T17:26:33.353Z,2.77
2023-05-15T17:29:00.139Z,3.13
2023-05-15T17:31:29.001Z,3.30
2023-05-15T17:33:55.627Z,3.30
2023-05-15T17:36:22.220Z,2.90
2023-05-15T17:38:48.892Z,3.10
2023-05-15T17:41:15.674Z,3.00
2023-05-15T17:43:42.300Z,3.17
2023-05-15T17:46:08.998Z,3.67
2023-05-15T17:48:36.114Z,4.23
2023-05-15T17:51:02.779Z,3.67
2023-05-15T17:53:29.378Z,3.27
2023-05-15T17:55:56.127Z,3.30
2023-05-15T17:58:22.762Z,3.30
2023-05-15T18:00:51.926Z,3.00
2023-05-15T18:03:18.725Z,4.67
2023-05-15T18:05:46.959Z,3.13
2023-05-15T18:08:14.191Z,3.20
2023-05-15T18:10:40.821Z,3.50
2023-05-15T18:13:08.104Z,3.47
2023-05-15T18:15:37.578Z,3.40
2023-05-15T18:18:04.696Z,3.30
2023-05-15T18:20:31.502Z,3.30
2023-05-15T18:22:58.248Z,3.50
2023-05-15T18:25:25.207Z,3.47
2023-05-15T18:27:52.189Z,4.07
2023-05-15T18:30:18.903Z,3.90
2023-05-15T18:32:45.548Z,3.37
2023-05-15T18:35:12.404Z,3.27
2023-05-15T18:37:39.045Z,3.53
2023-05-15T18:40:06.519Z,3.83
2023-05-15T18:42:33.177Z,3.87
2023-05-15T18:44:59.842Z,3.60
2023-05-15T18:47:26.649Z,3.30
2023-05-15T18:49:53.280Z,3.93
2023-05-15T18:52:21.221Z,3.80
2023-05-15T18:54:48.064Z,3.63
2023-05-15T18:57:14.745Z,3.20
2023-05-15T18:59:41.893Z,3.43
2023-05-15T19:02:09.729Z,3.30
2023-05-15T19:04:36.556Z,3.37
2023-05-15T19:07:03.210Z,3.47
2023-05-15T19:09:29.887Z,3.00
2023-05-15T19:11:56.634Z,2.97
2023-05-15T19:14:23.253Z,3.20
2023-05-15T19:16:49.902Z,3.77
2023-05-15T19:19:17.239Z,3.50
2023-05-15T19:21:44.397Z,3.20
2023-05-15T19:24:11.375Z,3.00
2023-05-15T19:26:37.964Z,3.23
2023-05-15T19:29:04.654Z,3.20
2023-05-15T19:31:32.445Z,4.07
2023-05-15T19:34:00.289Z,4.20
2023-05-15T19:36:27.253Z,3.90
2023-05-15T19:38:53.969Z,3.93
2023-05-15T19:41:21.564Z,3.73
2023-05-15T19:43:50.513Z,3.33
2023-05-15T19:46:18.132Z,4.30
2023-05-15T19:48:45.108Z,4.20
2023-05-15T19:51:12.085Z,3.93
2023-05-15T19:53:38.782Z,3.90
2023-05-15T19:56:06.050Z,4.07
2023-05-15T19:58:33.114Z,8.27
2023-05-15T20:00:59.748Z,4.03
2023-05-15T20:03:32.594Z,3.83
2023-05-15T20:06:03.178Z,4.57
2023-05-15T20:08:30.171Z,4.60
2023-05-15T20:10:57.395Z,4.50
2023-05-15T20:13:24.147Z,4.17
2023-05-15T20:15:58.996Z,4.50
2023-05-15T20:18:27.216Z,4.53
2023-05-15T20:20:53.848Z,4.00
2023-05-15T20:23:21.245Z,4.40
2023-05-15T20:25:49.728Z,4.20
2023-05-15T20:28:17.601Z,4.07
2023-05-15T20:30:47.190Z,3.67
2023-05-15T20:33:14.241Z,4.43
2023-05-15T20:35:42.520Z,3.70
2023-05-15T20:38:10.323Z,4.27
2023-05-15T20:40:37.009Z,3.60
2023-05-15T20:43:03.718Z,3.20
2023-05-15T20:45:32.062Z,3.83
2023-05-15T20:47:58.883Z,3.60
2023-05-15T20:50:25.904Z,3.53
2023-05-15T20:52:53.100Z,3.53
2023-05-15T20:55:21.443Z,3.60
2023-05-15T20:57:48.991Z,5.27
2023-05-15T21:00:16.889Z,3.60
2023-05-15T21:02:44.619Z,3.77
2023-05-15T21:05:11.946Z,4.70
2023-05-15T21:07:38.697Z,3.90
2023-05-15T21:10:05.972Z,3.27
2023-05-15T21:12:32.711Z,4.10
2023-05-15T21:14:59.629Z,3.77
2023-05-15T21:17:26.251Z,3.60
2023-05-15T21:19:53.588Z,4.33
2023-05-15T21:22:20.329Z,3.83
2023-05-15T21:24:46.961Z,3.63
2023-05-15T21:27:13.591Z,4.57
2023-05-15T21:29:40.222Z,4.13
2023-05-15T21:32:07.328Z,3.97
2023-05-15T21:34:33.992Z,4.33
2023-05-15T21:37:00.650Z,6.50
2023-05-15T21:39:27.322Z,4.27
2023-05-15T21:41:53.949Z,3.90
2023-05-15T21:44:21.038Z,4.33
2023-05-15T21:46:47.822Z,4.50
2023-05-15T21:49:14.496Z,4.70
2023-05-15T21:51:41.122Z,4.00
2023-05-15T21:54:07.736Z,3.93
2023-05-15T21:56:34.408Z,3.67
2023-05-15T21:59:00.997Z,3.87
2023-05-15T22:01:27.743Z,4.40
2023-05-15T22:03:54.452Z,3.83
2023-05-15T22:06:21.057Z,6.00
2023-05-15T22:08:48.930Z,6.30
2023-05-15T22:11:17.037Z,5.23
2023-05-15T22:13:43.701Z,3.87
2023-05-15T22:16:10.412Z,4.10
2023-05-15T22:18:37.742Z,4.20
2023-05-15T22:21:04.558Z,4.53
2023-05-15T22:23:32.122Z,4.20
2023-05-15T22:25:58.837Z,4.43
2023-05-15T22:28:25.485Z,5.50
2023-05-15T22:30:52.209Z,6.40
2023-05-15T22:33:23.883Z,4.23
2023-05-15T22:35:54.082Z,5.17
2023-05-15T22:38:20.923Z,4.47
2023-05-15T22:40:51.588Z,4.77
2023-05-15T22:43:18.462Z,4.33
2023-05-15T22:45:45.377Z,4.60
2023-05-15T22:48:12.094Z,4.83
2023-05-15T22:50:38.792Z,4.10
2023-05-15T22:53:05.419Z,4.23
2023-05-15T22:55:32.016Z,4.93
2023-05-15T22:57:58.605Z,5.30
2023-05-15T23:00:25.555Z,4.73
2023-05-15T23:02:55.133Z,4.73
2023-05-15T23:05:22.324Z,4.43
2023-05-15T23:07:49.016Z,4.37
2023-05-15T23:10:15.699Z,4.50
2023-05-15T23:12:42.420Z,5.00
2023-05-15T23:15:12.234Z,4.70
2023-05-15T23:17:39.420Z,4.43
2023-05-15T23:20:06.758Z,4.30
2023-05-15T23:22:33.460Z,5.10
2023-05-15T23:25:00.645Z,4.57
2023-05-15T23:27:27.374Z,5.93
2023-05-15T23:29:54.040Z,4.70
2023-05-15T23:32:20.699Z,4.87
2023-05-15T23:34:47.564Z,5.00
2023-05-15T23:37:14.366Z,4.90
2023-05-15T23:39:40.946Z,4.47
2023-05-15T23:42:09.881Z,4.80
2023-05-15T23:44:36.743Z,4.80
2023-05-15T23:47:04.276Z,4.93
2023-05-15T23:49:32.761Z,5.77
2023-05-15T23:51:59.517Z,5.13
2023-05-15T23:54:26.228Z,10.77
2023-05-15T23:56:52.896Z,5.60
2023-05-15T23:59:19.570Z,5.13
